Aeroporto :
LOGIN :

Iscrizione | Disclaimer

   EN    FR    IT 

 










Sommario :    VFR   VFR Marginale   IFR   IFR Intensivo   IFR Molto Intensivo
Visibilità : 
Base nubi : 
>= 8 km
>= 3000ft
5 / 8 km
1000 / 3000 ft
1500m / 5 km
500 / 1000 ft
800 / 1500m
200 / 500 ft
< 800m
< 200 ft
Simboli :   Temporali  Nebbia  Neve Forte  Precipitazioni Forti  Vento > 20 kt
SIGMETs :   Varie  Temporali  Ghiacco  Turbolenza  Onda orograficha  Ceneri Vulcaniche






- Altitudine del aeroporto : 584 ft


LFPV - Villacoublay Vélizy

ULTIMO METAR :
  • 040000Z AUTO 34007KT 9999 ////// 14/10 Q1022

METARs OBSOLETI :
  • 031530Z AUTO VRB09KT CAVOK 24/09 Q1020 NOSIG
  • 032330Z AUTO 33005KT CAVOK 15/10 Q1022 NOSIG
  • 032300Z AUTO 34005KT CAVOK 15/10 Q1022 NOSIG
  • 032230Z AUTO 34006KT CAVOK 16/10 Q1022 NOSIG
  • 032200Z AUTO 33006KT CAVOK 16/10 Q1022 NOSIG
  • 032130Z AUTO 36004KT 9999 ////// 17/10 Q1022

TAF TAF LFPV
Valido dal 03 a 21 ore il 04 a 21 ore UTC


032000Z 0321/0421 34005KT CAVOK TX25/0414Z TN12/0403Z



MetMap, La meteo Aeronautica in un colpo d'occhio ! - Copyright ORBIFLY Dicembre 2007 - Disclaimer

ORBIFLY MET'MAP TEAM :

Programmazione e sviluppo : Alexandra Zaïnal
Concezione : Baudouin d'Aumeries
Supporto tecnico e logistico : Manuel Goepfert
Aiuto : Marc-Olivier Méhu
Aiuto per la traduzione : Arnaldo La Scala




FONTI E CREDITI :

   NOAA